Forside
METAR-TAF:

METAR-TAF

Lufthavne :

Ottawa, Ontario, Canada

Breddekreds: 45-19N, længdekreds: 075-40W, højde: 116 m

Aktuelle vejr

Denne rapport blev lavet for 19 minutter siden, kl. 23:00 UTC
Vind 13 kt fra nordnordvest med vindstød på up til 21 kt
Temperatur 25°C
Fugtighed 44%
Tryk 1009 hPa
Sigt: 24.1 km
Spredte skyer i en højde af 6000 ft

METAR: CYOW 172300Z 33013G21KT 15SM SCT060 25/12 A2980 RMK CU3 SLP093 DENSITY ALT 1800FT

Tid: 19:19 (23:19 UTC)

Vejrudsigter

Denne rapport blev lavet for 2 timer og 41 minutter siden, kl. 20:38 UTC
Foreløbig gælder fra 17 på 21 UTC til 18 på 18 UTC
Vind 12 kt fra nordvest med vindstød på up til 22 kt
Sigt: 10 km
Nogle få skyer i en højde af 5000 ft
ændring
fra 17 på 21 UTC til 17 på 23 UTC
Brudte skyer i en højde af 5000 ft
Fra 18 på 0300 UTC
Vind 10 kt fra nordnordvest
Sigt: 10 km
Nogle få skyer i en højde af 5000 ft

TAF: CYOW 172038Z 1721/1818 31012G22KT P6SM FEW050 BECMG 1721/1723 BKN050 FM180300 34010KT P6SM FEW050 RMK NXT FCST BY 180000Z

Vejrobservationer og prognoser fra mere end 4000 lufthavne (METAR og TAF).

De gule og røde prikker repræsenterer de meteorologiske stationer.

Flyt musen over at se navnet på stationen.

Så klik over at se vejr observationer og prognoser.

At skifte det kort: Klik på de grønne knapper med et sort kors for at zoome ind; på den grønne knap med en bindestreg for at zoome ud; eller på de grønne pile for tilstødende kort.


METAR-TAF: